Time;durP1;ratioP1;P1;durP2;ratioP2;P2;SDS_P1;SDS_P2;PMS_P1;PMS_P2;Temp;Humidity;BMP_temperature;BMP_pressure;BME280_temperature;BME280_humidity;BME280_pressure;Samples;Min_cycle;Max_cycle;Signal;HPM_P1;HPM_P2
2021/09/23 00:00:52;;;;;;;48.77;37.77;;;;;;;13.29;84.40;102106.28;4997055;28;20211;-78
2021/09/23 00:05:53;;;;;;;45.33;38.47;;;;;;;13.26;84.63;102113.94;4998942;28;20220;-78
2021/09/23 00:08:18;;;;;;;46.47;36.67;;;;;;;13.23;84.72;102108.69;4998854;28;20191;-77
2021/09/23 00:10:44;;;;;;;49.87;39.60;;;;;;;13.22;84.76;102109.53;4997458;28;20204;-77
2021/09/23 00:13:11;;;;;;;46.37;36.83;;;;;;;13.21;84.17;102105.22;4996447;28;20180;-78
2021/09/23 00:15:37;;;;;;;47.93;38.60;;;;;;;13.20;84.44;102094.03;4979880;28;20194;-77
2021/09/23 00:18:07;;;;;;;45.90;37.47;;;;;;;13.21;84.62;102093.19;4996218;28;20628;-77
2021/09/23 00:20:35;;;;;;;48.40;38.23;;;;;;;13.22;84.68;102084.66;4997095;28;20195;-78
2021/09/23 00:23:00;;;;;;;46.90;38.83;;;;;;;13.19;84.29;102082.00;4996567;28;20208;-77
2021/09/23 00:25:26;;;;;;;47.93;39.43;;;;;;;13.17;84.45;102068.22;4996871;28;20196;-78
2021/09/23 00:27:53;;;;;;;47.40;38.43;;;;;;;13.16;84.96;102073.34;4998710;28;20184;-78
2021/09/23 00:30:19;;;;;;;50.13;40.67;;;;;;;13.15;85.31;102064.75;5015192;28;20267;-77
2021/09/23 00:32:44;;;;;;;50.87;40.33;;;;;;;13.15;85.09;102063.84;5015462;28;20211;-78
2021/09/23 00:35:10;;;;;;;54.03;41.27;;;;;;;13.16;85.28;102060.47;4997923;28;20272;-77
2021/09/23 00:37:36;;;;;;;54.60;41.83;;;;;;;13.15;85.41;102059.59;5013851;28;20637;-77
2021/09/23 00:40:07;;;;;;;54.23;42.33;;;;;;;13.20;85.03;102057.16;5010336;28;20185;-77
2021/09/23 00:42:33;;;;;;;58.53;43.20;;;;;;;13.21;85.21;102058.91;4998527;28;20625;-78
2021/09/23 00:45:01;;;;;;;55.33;43.37;;;;;;;13.19;85.05;102055.41;4996945;28;20179;-77
2021/09/23 00:47:27;;;;;;;52.43;42.63;;;;;;;13.18;85.50;102049.41;4996564;28;20192;-77
2021/09/23 00:49:53;;;;;;;49.20;40.40;;;;;;;13.15;85.53;102045.84;4997791;28;20565;-77
2021/09/23 00:52:26;;;;;;;52.60;40.60;;;;;;;13.16;85.04;102045.06;5012064;28;20200;-77
2021/09/23 00:54:52;;;;;;;51.67;40.27;;;;;;;13.16;85.06;102038.19;5011061;28;20187;-77
2021/09/23 00:57:18;;;;;;;56.07;41.70;;;;;;;13.16;85.68;102034.75;4996343;28;20188;-77
2021/09/23 00:59:45;;;;;;;55.20;41.13;;;;;;;13.17;85.19;102033.94;4978708;28;20737;-77
2021/09/23 01:02:12;;;;;;;55.67;41.13;;;;;;;13.16;85.54;102025.34;5029686;28;20258;-77
2021/09/23 01:04:42;;;;;;;54.83;42.10;;;;;;;13.17;85.93;102028.78;5013806;28;20188;-77
2021/09/23 01:07:13;;;;;;;55.30;42.27;;;;;;;13.14;85.09;102019.28;5013429;28;20192;-77
2021/09/23 01:09:53;;;;;;;57.70;42.90;;;;;;;13.13;84.82;102019.25;4996498;28;20275;-77
2021/09/23 01:12:22;;;;;;;55.07;41.03;;;;;;;13.11;84.92;102015.78;4979347;28;20243;-77
2021/09/23 01:14:48;;;;;;;53.83;42.83;;;;;;;13.10;85.18;102020.03;4996505;28;20195;-77
2021/09/23 01:17:13;;;;;;;58.53;42.67;;;;;;;13.08;84.96;102020.81;4995560;28;20706;-77
2021/09/23 01:19:46;;;;;;;57.27;43.13;;;;;;;13.03;85.15;102012.09;4995925;28;20281;-77
2021/09/23 01:22:13;;;;;;;60.97;44.27;;;;;;;13.02;85.52;102008.66;4994641;28;20243;-77
2021/09/23 01:24:57;;;;;;;56.90;42.30;;;;;;;13.02;85.32;101995.78;4995930;28;20339;-77
2021/09/23 01:27:23;;;;;;;56.60;43.80;;;;;;;13.00;85.32;101996.56;5012540;28;20227;-77
2021/09/23 01:29:48;;;;;;;56.70;43.80;;;;;;;12.99;85.66;101988.00;4999271;28;20198;-78
2021/09/23 01:32:19;;;;;;;53.60;41.53;;;;;;;12.99;85.21;101988.00;4983647;28;20199;-77
2021/09/23 01:34:45;;;;;;;58.30;43.73;;;;;;;12.99;85.51;101982.88;4984211;28;20184;-77
2021/09/23 01:37:10;;;;;;;58.53;42.43;;;;;;;12.95;85.52;101983.56;5000255;28;20194;-77
2021/09/23 01:39:42;;;;;;;58.70;42.30;;;;;;;12.93;84.89;101980.94;4980804;28;20185;-77
2021/09/23 01:42:17;;;;;;;58.37;41.90;;;;;;;12.92;84.77;101975.75;5000208;28;20302;-77
2021/09/23 01:44:42;;;;;;;54.70;41.23;;;;;;;12.89;85.40;101979.13;5000241;28;20810;-77
2021/09/23 01:47:08;;;;;;;57.77;41.97;;;;;;;12.90;85.28;101970.56;5016738;28;20282;-78
2021/09/23 01:49:42;;;;;;;55.83;42.10;;;;;;;12.88;85.08;101968.78;4999661;28;20194;-77
2021/09/23 01:52:07;;;;;;;59.03;42.97;;;;;;;12.90;85.17;101967.16;4984079;28;20688;-78
2021/09/23 01:54:32;;;;;;;52.97;41.23;;;;;;;12.86;84.84;101963.59;4982835;28;20591;-77
2021/09/23 01:56:58;;;;;;;55.97;40.17;;;;;;;12.82;84.80;101951.47;4983379;28;20234;-77
2021/09/23 01:59:24;;;;;;;51.43;40.37;;;;;;;12.81;85.22;101947.19;4999549;28;20187;-78
2021/09/23 02:01:53;;;;;;;51.83;39.33;;;;;;;12.83;84.58;101937.81;4983584;28;20211;-77
2021/09/23 02:04:18;;;;;;;53.80;40.10;;;;;;;12.80;85.35;101931.72;4983841;28;20216;-77
2021/09/23 02:06:45;;;;;;;56.27;39.63;;;;;;;12.80;85.17;101927.44;4998454;28;20211;-77
2021/09/23 02:09:11;;;;;;;55.97;39.93;;;;;;;12.77;84.51;101922.22;4999976;28;20604;-78
2021/09/23 02:11:37;;;;;;;53.70;39.90;;;;;;;12.77;84.75;101918.78;4999222;28;20216;-77
2021/09/23 02:14:03;;;;;;;61.13;41.30;;;;;;;12.74;84.51;101910.97;5000094;28;20184;-77
2021/09/23 02:16:29;;;;;;;60.83;42.20;;;;;;;12.75;85.28;101907.56;5013493;28;20188;-78
2021/09/23 02:18:58;;;;;;;57.17;41.77;;;;;;;12.76;85.12;101897.34;4998992;28;20207;-78
2021/09/23 02:21:24;;;;;;;58.50;41.23;;;;;;;12.76;84.89;101893.94;4998639;28;20204;-77
2021/09/23 02:23:51;;;;;;;58.63;41.83;;;;;;;12.70;85.00;101891.16;4999037;28;20286;-77
2021/09/23 02:26:17;;;;;;;59.63;43.53;;;;;;;12.71;85.20;101891.22;4979053;28;20184;-77
2021/09/23 02:28:43;;;;;;;60.13;42.30;;;;;;;12.70;85.00;101879.19;4994870;28;20222;-77
2021/09/23 02:31:08;;;;;;;61.13;42.33;;;;;;;12.70;85.25;101857.75;4982691;28;20276;-78
2021/09/23 02:33:34;;;;;;;58.57;42.13;;;;;;;12.69;85.71;101858.59;4982260;28;20801;-78
2021/09/23 02:36:00;;;;;;;61.00;42.60;;;;;;;12.69;84.94;101868.88;4998105;28;20188;-78
2021/09/23 02:38:26;;;;;;;58.57;39.87;;;;;;;12.66;85.20;101861.94;4998669;28;20211;-78
2021/09/23 02:40:51;;;;;;;57.23;40.27;;;;;;;12.73;84.77;101856.13;4982988;28;20208;-77
2021/09/23 02:43:16;;;;;;;55.50;41.00;;;;;;;12.73;84.72;101858.69;4998857;28;20596;-77
2021/09/23 02:45:42;;;;;;;60.37;40.60;;;;;;;12.70;84.96;101861.22;4978829;28;20577;-77
2021/09/23 02:48:07;;;;;;;60.60;41.00;;;;;;;12.70;84.47;101865.47;5012871;28;20179;-77
2021/09/23 02:50:32;;;;;;;54.87;39.30;;;;;;;12.73;84.33;101871.56;4981406;28;20649;-78
2021/09/23 02:52:58;;;;;;;57.93;38.87;;;;;;;12.74;83.88;101860.47;4997739;28;20199;-77
2021/09/23 02:55:23;;;;;;;57.17;39.53;;;;;;;12.72;84.27;101861.25;4996916;28;20188;-78
2021/09/23 02:57:49;;;;;;;58.33;40.53;;;;;;;12.69;83.65;101854.34;4998615;28;20191;-77
2021/09/23 03:00:14;;;;;;;58.13;38.70;;;;;;;12.71;83.66;101851.78;4998100;28;20196;-78
2021/09/23 03:02:40;;;;;;;55.80;39.27;;;;;;;12.79;82.89;101850.28;5013128;28;20296;-78
2021/09/23 03:05:05;;;;;;;57.00;39.10;;;;;;;12.76;83.28;101842.53;4985187;28;20256;-78
2021/09/23 03:07:31;;;;;;;59.87;38.57;;;;;;;12.73;83.29;101842.44;4997679;28;20619;-77
2021/09/23 03:09:56;;;;;;;55.27;38.30;;;;;;;12.72;83.59;101838.97;4998488;28;20242;-77
2021/09/23 03:12:21;;;;;;;55.47;39.30;;;;;;;12.81;82.78;101831.50;4997191;28;20712;-76
2021/09/23 03:14:47;;;;;;;55.27;38.83;;;;;;;12.82;82.57;101832.38;4997443;28;20588;-77
2021/09/23 03:17:12;;;;;;;55.37;39.47;;;;;;;12.77;82.91;101834.81;5012543;28;20549;-78
2021/09/23 03:19:37;;;;;;;55.30;38.27;;;;;;;12.76;82.33;101827.94;4996876;28;20291;-78
2021/09/23 03:22:03;;;;;;;59.27;39.07;;;;;;;12.73;82.62;101811.59;4995655;28;20192;-77
2021/09/23 03:24:28;;;;;;;53.83;38.30;;;;;;;12.70;82.47;101808.94;5028696;28;20204;-77
2021/09/23 03:26:54;;;;;;;53.87;37.60;;;;;;;12.72;82.31;101807.28;5012476;28;20192;-78
2021/09/23 03:29:19;;;;;;;58.13;37.63;;;;;;;12.77;82.01;101795.41;5029262;28;20196;-77
2021/09/23 03:31:45;;;;;;;55.03;37.30;;;;;;;12.77;82.14;101792.84;5028349;28;20575;-76
2021/09/23 03:34:10;;;;;;;53.13;37.00;;;;;;;12.79;81.87;101783.47;5023187;28;20224;-78
2021/09/23 03:36:36;;;;;;;55.87;38.33;;;;;;;12.76;82.17;101783.41;4977755;28;20184;-77
2021/09/23 03:39:02;;;;;;;55.40;39.00;;;;;;;12.74;82.23;101775.66;4984579;28;20196;-77
2021/09/23 03:41:27;;;;;;;57.03;38.77;;;;;;;12.77;81.42;101770.56;4981046;28;20216;-77
2021/09/23 03:43:53;;;;;;;54.03;37.57;;;;;;;12.78;81.95;101781.72;4997513;28;20246;-77
2021/09/23 03:46:19;;;;;;;54.00;36.63;;;;;;;12.84;80.90;101782.75;4996289;28;20184;-78
2021/09/23 03:48:44;;;;;;;55.43;37.03;;;;;;;12.88;81.24;101773.41;4996426;28;20238;-77
2021/09/23 03:51:13;;;;;;;58.40;35.53;;;;;;;12.91;81.29;101773.50;4996252;28;20212;-77
2021/09/23 03:53:40;;;;;;;55.43;35.43;;;;;;;12.93;80.97;101772.72;4996027;28;20757;-77
2021/09/23 03:56:07;;;;;;;50.70;34.47;;;;;;;12.95;81.00;101775.31;4980116;28;20251;-77
2021/09/23 03:58:33;;;;;;;54.63;37.07;;;;;;;12.99;80.16;101771.16;4997127;28;20215;-77
2021/09/23 04:00:58;;;;;;;53.53;36.63;;;;;;;13.01;80.38;101765.22;4979717;28;20219;-78
2021/09/23 04:03:24;;;;;;;52.53;34.97;;;;;;;13.01;80.31;101766.91;5013023;28;20219;-77
2021/09/23 04:05:50;;;;;;;53.30;36.27;;;;;;;13.03;79.62;101760.97;5029595;28;20565;-78
2021/09/23 04:08:16;;;;;;;55.00;35.53;;;;;;;13.06;79.69;101761.03;4997794;28;20665;-78
2021/09/23 04:10:41;;;;;;;51.50;34.70;;;;;;;13.06;79.39;101753.31;4995439;28;20223;-77
2021/09/23 04:13:07;;;;;;;52.57;34.77;;;;;;;13.03;79.30;101758.38;4996614;28;20227;-76
2021/09/23 04:15:32;;;;;;;53.23;34.40;;;;;;;12.99;79.45;101754.03;5002466;28;20195;-78
2021/09/23 04:18:00;;;;;;;52.80;34.97;;;;;;;12.98;78.63;101748.84;5011518;28;20179;-77
2021/09/23 04:20:26;;;;;;;56.33;35.93;;;;;;;12.99;78.30;101738.59;5015578;28;20197;-77
2021/09/23 04:22:53;;;;;;;50.97;34.73;;;;;;;12.98;78.54;101741.97;4976929;28;20254;-78
2021/09/23 04:25:19;;;;;;;50.60;34.53;;;;;;;12.93;78.51;101736.72;4976932;28;20275;-78
2021/09/23 04:27:45;;;;;;;50.90;34.57;;;;;;;12.93;78.78;101735.84;5009374;28;20189;-77
2021/09/23 04:30:11;;;;;;;48.67;34.07;;;;;;;12.98;77.68;101725.72;5010485;28;20238;-77
2021/09/23 04:32:36;;;;;;;49.57;33.50;;;;;;;12.96;78.34;101712.78;4976393;28;20216;-77
2021/09/23 04:35:02;;;;;;;52.83;33.03;;;;;;;12.98;78.13;101715.44;4977163;28;20196;-78
2021/09/23 04:37:27;;;;;;;58.23;35.50;;;;;;;12.97;78.40;101709.41;4960524;28;20197;-77
2021/09/23 04:39:53;;;;;;;55.13;35.37;;;;;;;12.99;77.98;101705.19;4952538;29;20274;-78
2021/09/23 04:42:18;;;;;;;50.53;33.87;;;;;;;13.02;77.56;101707.81;4998253;28;20208;-78
2021/09/23 04:44:44;;;;;;;50.07;33.00;;;;;;;13.00;77.62;101698.31;4969909;28;20205;-78
2021/09/23 04:47:09;;;;;;;53.97;34.90;;;;;;;13.02;77.71;101697.53;4988009;28;20257;-77
2021/09/23 04:49:37;;;;;;;52.17;33.93;;;;;;;13.00;77.48;101700.88;4975348;28;20259;-77
2021/09/23 04:52:03;;;;;;;49.83;34.37;;;;;;;13.00;77.95;101703.47;4977240;28;20228;-76
2021/09/23 04:54:29;;;;;;;54.10;35.13;;;;;;;13.00;77.87;101704.34;4976262;28;20196;-77
2021/09/23 04:56:54;;;;;;;53.67;34.83;;;;;;;12.99;77.89;101694.91;5008875;28;20275;-78
2021/09/23 04:59:19;;;;;;;55.07;35.03;;;;;;;13.02;77.63;101684.66;4991996;28;20197;-78
2021/09/23 05:01:45;;;;;;;49.70;33.83;;;;;;;13.02;77.01;101679.53;5020249;28;20224;-77
2021/09/23 05:04:10;;;;;;;53.63;34.37;;;;;;;12.99;77.39;101683.72;4960705;28;20646;-77
2021/09/23 05:06:37;;;;;;;55.50;33.40;;;;;;;13.00;77.37;101670.03;4991918;28;20254;-77
2021/09/23 05:09:03;;;;;;;53.90;35.43;;;;;;;12.99;77.15;101660.59;4988197;28;20181;-76
2021/09/23 05:11:31;;;;;;;49.67;32.43;;;;;;;12.98;77.42;101651.16;4988286;28;20209;-77
2021/09/23 05:13:56;;;;;;;51.30;32.87;;;;;;;12.93;77.20;101646.75;4956325;28;20221;-77
2021/09/23 05:16:22;;;;;;;51.43;33.57;;;;;;;12.92;77.17;101638.97;4957569;29;20189;-77
2021/09/23 05:18:50;;;;;;;50.90;33.77;;;;;;;12.93;76.92;101639.88;4974295;28;20203;-78
2021/09/23 05:21:15;;;;;;;51.27;31.83;;;;;;;12.93;77.29;101639.03;4956834;29;20213;-77
2021/09/23 05:23:40;;;;;;;51.90;32.93;;;;;;;12.90;76.91;101635.53;4958244;28;20617;-77
2021/09/23 05:26:06;;;;;;;49.40;34.53;;;;;;;12.94;77.10;101633.03;4971165;28;20227;-77
2021/09/23 05:28:31;;;;;;;48.13;32.77;;;;;;;12.94;77.52;101634.72;4983667;28;20665;-78
2021/09/23 05:30:57;;;;;;;46.53;31.37;;;;;;;12.95;76.76;101636.50;4974068;28;20311;-77
2021/09/23 05:33:22;;;;;;;49.23;33.20;;;;;;;12.91;77.02;101632.97;4963786;28;20209;-77
2021/09/23 05:35:47;;;;;;;49.77;31.60;;;;;;;12.94;76.84;101640.75;4989700;28;20706;-77
2021/09/23 05:38:13;;;;;;;44.27;31.33;;;;;;;12.99;76.74;101645.16;4965456;28;20189;-77
2021/09/23 05:40:39;;;;;;;48.17;31.10;;;;;;;13.00;76.87;101636.63;4975864;28;20376;-77
2021/09/23 05:43:05;;;;;;;51.43;33.20;;;;;;;13.01;76.73;101640.91;5007447;28;20219;-77
2021/09/23 05:45:31;;;;;;;45.83;31.97;;;;;;;13.07;76.08;101649.63;4976728;28;20200;-75
2021/09/23 05:47:56;;;;;;;45.20;30.97;;;;;;;13.11;76.32;101643.72;4960383;28;20199;-78
2021/09/23 05:50:22;;;;;;;50.80;32.30;;;;;;;13.17;76.39;101648.16;4987404;28;20195;-77
2021/09/23 05:52:48;;;;;;;49.57;32.43;;;;;;;13.20;75.73;101649.06;4963107;28;20196;-78
2021/09/23 05:55:13;;;;;;;54.30;32.37;;;;;;;13.20;76.55;101643.94;5008458;28;20260;-78
2021/09/23 05:57:39;;;;;;;47.70;32.10;;;;;;;13.26;75.77;101643.19;4991100;28;20237;-77
2021/09/23 06:00:08;;;;;;;46.97;31.13;;;;;;;13.31;75.62;101644.16;4974934;28;20200;-78
2021/09/23 06:02:38;;;;;;;49.20;32.10;;;;;;;13.34;75.71;101644.22;4993615;28;20244;-77
2021/09/23 06:05:04;;;;;;;48.27;32.13;;;;;;;13.36;75.69;101630.56;4977950;28;20188;-77
2021/09/23 06:07:30;;;;;;;44.87;31.70;;;;;;;13.39;75.94;101628.03;4960175;28;20631;-78
2021/09/23 06:09:55;;;;;;;46.93;30.97;;;;;;;13.40;75.32;101626.34;4959390;28;20216;-78
2021/09/23 06:12:20;;;;;;;46.70;30.97;;;;;;;13.41;75.80;101622.94;4958853;29;20220;-77
2021/09/23 06:14:46;;;;;;;47.27;30.77;;;;;;;13.41;75.75;101610.94;4958854;28;20201;-76
2021/09/23 06:17:13;;;;;;;45.83;31.90;;;;;;;13.47;75.56;101610.19;4975101;28;20211;-77
2021/09/23 06:19:39;;;;;;;43.83;30.43;;;;;;;13.49;75.81;101604.22;4982170;28;20184;-77
2021/09/23 06:22:04;;;;;;;45.37;30.63;;;;;;;13.51;75.99;101601.69;4980886;28;20213;-77
2021/09/23 06:24:30;;;;;;;47.53;30.50;;;;;;;13.52;76.02;101596.59;4971904;28;20220;-76
2021/09/23 06:26:55;;;;;;;48.30;30.83;;;;;;;13.57;75.95;101582.09;4989274;28;20203;-78
2021/09/23 06:29:20;;;;;;;46.77;30.80;;;;;;;13.59;75.53;101570.13;4980832;28;20214;-77
2021/09/23 06:31:46;;;;;;;42.03;28.40;;;;;;;13.61;75.37;101573.59;4992375;28;20208;-78
2021/09/23 06:34:12;;;;;;;46.93;29.37;;;;;;;13.66;75.30;101576.25;4976331;28;20196;-77
2021/09/23 06:36:38;;;;;;;47.23;30.37;;;;;;;13.68;75.72;101578.00;5003130;28;20194;-77
2021/09/23 06:39:04;;;;;;;45.83;30.00;;;;;;;13.70;76.17;101567.75;4986466;28;20188;-77
2021/09/23 06:41:30;;;;;;;43.30;29.73;;;;;;;13.70;75.79;101570.31;4973622;28;20212;-77
2021/09/23 06:43:55;;;;;;;47.57;30.00;;;;;;;13.72;76.01;101538.63;4968032;28;20215;-77
2021/09/23 06:46:21;;;;;;;46.00;28.90;;;;;;;13.81;75.64;101530.22;4954620;29;20655;-77
2021/09/23 06:48:48;;;;;;;44.73;30.80;;;;;;;13.83;75.93;101526.81;4955071;29;20757;-77
2021/09/23 06:51:14;;;;;;;46.57;28.70;;;;;;;13.89;75.46;101529.47;4971496;28;20216;-77
2021/09/23 06:53:39;;;;;;;46.33;28.70;;;;;;;13.96;75.38;101525.31;4965032;28;20283;-76
2021/09/23 06:56:05;;;;;;;47.07;29.83;;;;;;;14.01;75.54;101531.41;4987268;28;20223;-77
2021/09/23 06:58:30;;;;;;;48.13;31.13;;;;;;;14.04;75.55;101518.59;4995351;28;20199;-77
2021/09/23 07:01:14;;;;;;;41.53;27.90;;;;;;;14.04;75.51;101514.28;4975731;28;20275;-76
2021/09/23 07:03:58;;;;;;;43.73;29.67;;;;;;;14.05;76.24;101516.00;4974759;28;20227;-77
2021/09/23 07:06:41;;;;;;;44.33;29.37;;;;;;;14.10;76.03;101513.53;4974814;28;20200;-77
2021/09/23 07:09:15;;;;;;;41.90;29.27;;;;;;;14.13;75.57;101498.97;4983037;28;20180;-77
2021/09/23 07:11:41;;;;;;;40.23;28.13;;;;;;;14.23;75.71;101498.28;4978155;28;20219;-77
2021/09/23 07:14:06;;;;;;;39.77;29.23;;;;;;;14.22;76.06;101488.00;4988171;28;20209;-77
2021/09/23 07:16:32;;;;;;;42.00;28.63;;;;;;;14.28;75.85;101495.81;4961959;28;20681;-77
2021/09/23 07:18:57;;;;;;;42.97;30.63;;;;;;;14.25;76.10;101490.59;4976170;28;20189;-76
2021/09/23 07:21:23;;;;;;;42.20;28.60;;;;;;;14.34;76.57;101483.00;4976672;28;20200;-77
2021/09/23 07:23:48;;;;;;;40.83;28.80;;;;;;;14.43;76.05;101484.00;4999467;28;20699;-77
2021/09/23 07:26:16;;;;;;;43.67;28.60;;;;;;;14.39;75.85;101492.53;4955196;28;20273;-76
2021/09/23 07:28:42;;;;;;;46.20;30.03;;;;;;;14.43;75.90;101480.56;4956457;28;20205;-76
2021/09/23 07:31:07;;;;;;;39.57;28.93;;;;;;;14.47;76.14;101475.47;4958047;29;20220;-77
2021/09/23 07:33:32;;;;;;;43.20;29.90;;;;;;;14.42;75.81;101476.25;4980714;28;20192;-77
2021/09/23 07:35:58;;;;;;;43.93;29.53;;;;;;;14.58;75.75;101486.78;4977434;28;20215;-76
2021/09/23 07:38:23;;;;;;;44.63;28.60;;;;;;;14.67;75.38;101484.34;4975511;28;20193;-77
2021/09/23 07:40:49;;;;;;;41.73;28.83;;;;;;;14.74;74.85;101483.56;4957558;28;20205;-77
2021/09/23 07:43:14;;;;;;;38.97;28.30;;;;;;;14.92;74.36;101475.19;4989902;28;20286;-76
2021/09/23 07:45:40;;;;;;;42.40;28.27;;;;;;;15.09;73.99;101469.38;4990738;28;20207;-77
2021/09/23 07:48:13;;;;;;;40.60;28.23;;;;;;;15.28;73.82;101468.72;4975897;28;20684;-77
2021/09/23 07:50:38;;;;;;;42.10;26.80;;;;;;;15.24;74.31;101463.53;4982451;28;20192;-77
2021/09/23 07:53:03;;;;;;;37.73;26.87;;;;;;;15.12;74.20;101455.66;4978442;28;20183;-77
2021/09/23 07:55:29;;;;;;;39.70;27.60;;;;;;;15.17;73.95;101448.81;5005195;28;20581;-77
2021/09/23 07:57:54;;;;;;;41.90;27.03;;;;;;;15.18;74.10;101443.69;5016293;28;20541;-76
2021/09/23 08:00:20;;;;;;;41.40;27.67;;;;;;;15.31;74.27;101437.78;5001676;28;20552;-77
2021/09/23 08:02:45;;;;;;;35.07;26.33;;;;;;;15.50;73.34;101433.69;5029288;28;20664;-77
2021/09/23 08:05:15;;;;;;;37.17;26.40;;;;;;;15.55;73.04;101438.06;5027775;28;20192;-77
2021/09/23 08:07:44;;;;;;;34.73;25.33;;;;;;;15.92;72.54;101442.66;4994366;28;20192;-78
2021/09/23 08:10:10;;;;;;;37.50;26.60;;;;;;;16.18;71.77;101440.25;5000647;28;20211;-77
2021/09/23 08:12:35;;;;;;;38.00;24.30;;;;;;;16.52;70.78;101442.19;4995549;28;20216;-78
2021/09/23 08:15:03;;;;;;;35.93;24.73;;;;;;;16.37;70.99;101440.38;5010215;28;20282;-77
2021/09/23 08:17:57;;;;;;;35.50;24.77;;;;;;;16.65;70.61;101436.22;4995699;28;20286;-77
2021/09/23 08:20:42;;;;;;;35.63;24.67;;;;;;;16.60;69.93;101425.00;4982083;28;20258;-77
2021/09/23 08:23:08;;;;;;;35.97;23.73;;;;;;;16.53;70.94;101426.69;4980853;28;20208;-76
2021/09/23 08:25:34;;;;;;;35.47;25.03;;;;;;;16.68;70.36;101425.91;4991131;28;20206;-77
2021/09/23 08:27:59;;;;;;;31.80;23.63;;;;;;;16.95;69.21;101426.00;4995924;28;20188;-77
2021/09/23 08:30:25;;;;;;;33.67;23.57;;;;;;;16.80;69.97;101431.97;5006678;28;20304;-77
2021/09/23 08:32:51;;;;;;;34.17;22.67;;;;;;;16.67;70.14;101411.25;5004109;28;20195;-78
2021/09/23 08:35:17;;;;;;;34.13;24.73;;;;;;;16.53;70.60;101431.00;4996170;28;20238;-77
2021/09/23 08:37:43;;;;;;;35.20;25.00;;;;;;;16.37;71.28;101429.16;4995530;28;20184;-78
2021/09/23 08:40:11;;;;;;;35.53;24.40;;;;;;;16.35;71.17;101421.38;4989761;28;20195;-78
2021/09/23 08:42:42;;;;;;;32.97;23.13;;;;;;;16.41;71.61;101407.66;4983550;28;20280;-77
2021/09/23 08:45:10;;;;;;;36.93;24.00;;;;;;;16.48;71.68;101404.28;4977467;28;20193;-77
2021/09/23 08:47:36;;;;;;;34.23;24.83;;;;;;;16.52;71.45;101393.06;5009946;28;20176;-78
2021/09/23 08:50:09;;;;;;;36.47;25.37;;;;;;;16.31;72.42;101396.38;4984385;28;20187;-78
2021/09/23 08:52:37;;;;;;;35.93;24.83;;;;;;;16.36;72.25;101401.59;4980685;28;20307;-77
2021/09/23 08:55:03;;;;;;;32.77;23.37;;;;;;;16.42;72.23;101396.47;4994131;28;20661;-76
2021/09/23 08:57:30;;;;;;;38.90;25.10;;;;;;;16.28;72.77;101393.78;4988201;28;20641;-77
2021/09/23 08:59:55;;;;;;;33.33;24.70;;;;;;;16.41;72.67;101395.63;4980662;28;20192;-77
2021/09/23 09:02:24;;;;;;;34.30;25.73;;;;;;;16.35;72.93;101380.03;4977204;28;20212;-77
2021/09/23 09:05:17;;;;;;;37.80;24.77;;;;;;;16.47;72.92;101376.66;4982110;28;20222;-78
2021/09/23 09:08:18;;;;;;;34.37;24.20;;;;;;;16.69;72.00;101360.38;4999102;28;20292;-78
2021/09/23 09:11:04;;;;;;;30.27;23.30;;;;;;;16.95;71.11;101354.38;5009751;28;20628;-78
2021/09/23 09:13:36;;;;;;;32.17;23.77;;;;;;;16.92;71.67;101361.28;4993472;28;20195;-78
2021/09/23 09:16:22;;;;;;;33.97;24.00;;;;;;;16.58;72.04;101354.31;4993384;28;20193;-79
2021/09/23 09:18:52;;;;;;;34.37;25.13;;;;;;;16.48;72.80;101362.91;4976725;28;20251;-76
2021/09/23 09:21:21;;;;;;;34.43;24.80;;;;;;;16.35;73.07;101361.94;4994184;28;20271;-77
2021/09/23 09:23:54;;;;;;;35.43;24.53;;;;;;;16.36;73.35;101357.63;4995025;28;20204;-76
2021/09/23 09:26:25;;;;;;;32.63;23.93;;;;;;;16.42;73.02;101349.94;5027205;28;20283;-77
2021/09/23 09:28:54;;;;;;;29.63;23.00;;;;;;;16.50;72.88;101345.66;4995190;28;20204;-78
2021/09/23 09:31:22;;;;;;;33.70;22.90;;;;;;;16.46;73.12;101357.72;4994737;28;20192;-77
2021/09/23 09:33:52;;;;;;;31.90;24.50;;;;;;;16.29;73.54;101346.41;4994929;28;20251;-77
2021/09/23 09:36:32;;;;;;;28.87;22.77;;;;;;;16.29;73.53;101342.94;4978848;28;20283;-77
2021/09/23 09:39:05;;;;;;;31.60;23.07;;;;;;;16.31;73.95;101336.91;4993246;28;20275;-78
2021/09/23 09:41:34;;;;;;;31.23;23.27;;;;;;;16.31;73.43;101339.50;4977892;28;20218;-77
2021/09/23 09:44:03;;;;;;;33.27;22.90;;;;;;;16.42;73.33;101332.72;4964711;28;20247;-77
2021/09/23 09:46:31;;;;;;;31.30;22.00;;;;;;;16.37;73.45;101334.38;4977964;28;20222;-78
2021/09/23 09:48:58;;;;;;;28.80;21.63;;;;;;;16.46;73.09;101338.75;4994402;28;20199;-78
2021/09/23 09:51:42;;;;;;;29.37;22.37;;;;;;;16.51;73.11;101326.69;4981200;28;20585;-77
2021/09/23 09:54:10;;;;;;;30.90;23.23;;;;;;;16.70;73.21;101323.28;4981590;28;20215;-78
2021/09/23 09:56:38;;;;;;;30.40;23.63;;;;;;;16.76;72.70;101328.50;4997590;28;20697;-77
2021/09/23 09:59:18;;;;;;;32.77;21.77;;;;;;;16.98;71.51;101320.75;4998056;28;20288;-77
2021/09/23 10:01:49;;;;;;;30.27;21.53;;;;;;;17.09;71.45;101303.50;4986366;28;20750;-77
2021/09/23 10:04:17;;;;;;;30.00;23.07;;;;;;;17.08;70.88;101290.59;4985855;28;20204;-78
2021/09/23 10:06:43;;;;;;;28.43;22.43;;;;;;;17.07;70.87;101296.59;4990731;28;20221;-77
2021/09/23 10:09:10;;;;;;;31.17;22.87;;;;;;;17.14;71.02;101296.59;5026814;28;20184;-78
2021/09/23 10:11:40;;;;;;;27.70;21.30;;;;;;;17.19;70.94;101294.91;5001798;28;20258;-77
2021/09/23 10:14:06;;;;;;;25.40;20.60;;;;;;;17.17;70.86;101283.66;5017053;28;20579;-78
2021/09/23 10:16:33;;;;;;;27.17;21.03;;;;;;;17.05;71.29;101275.94;5000925;28;20225;-77
2021/09/23 10:18:59;;;;;;;27.23;21.03;;;;;;;17.08;71.35;101272.47;5001810;28;20301;-77
2021/09/23 10:21:25;;;;;;;28.80;21.77;;;;;;;17.04;71.03;101261.25;4993081;28;20635;-77
2021/09/23 10:23:52;;;;;;;28.00;21.63;;;;;;;17.27;70.23;101256.06;4972519;28;20232;-78
2021/09/23 10:26:20;;;;;;;25.90;20.90;;;;;;;17.42;70.04;101237.94;4994062;28;20195;-77
2021/09/23 10:28:49;;;;;;;27.30;20.03;;;;;;;17.33;69.95;101250.88;5011641;28;20197;-77
2021/09/23 10:31:19;;;;;;;25.37;20.67;;;;;;;17.28;70.01;101239.66;5002283;28;20289;-77
2021/09/23 10:33:46;;;;;;;28.43;20.10;;;;;;;17.43;70.33;101243.13;5001108;28;20187;-76
2021/09/23 10:36:15;;;;;;;28.17;20.57;;;;;;;17.39;69.91;101232.72;4977640;28;20586;-78
2021/09/23 10:38:42;;;;;;;25.37;20.07;;;;;;;17.34;69.87;101224.09;5008826;28;20188;-78
2021/09/23 10:41:10;;;;;;;27.47;19.30;;;;;;;17.43;69.24;101212.06;5009710;28;20223;-78
2021/09/23 10:43:37;;;;;;;24.57;18.23;;;;;;;17.52;68.76;101211.16;4993156;28;20270;-78
2021/09/23 10:46:04;;;;;;;21.17;16.93;;;;;;;18.00;66.97;101219.59;4960346;28;20189;-77
2021/09/23 10:48:41;;;;;;;23.27;18.03;;;;;;;17.83;67.44;101202.41;5005693;28;20183;-76
2021/09/23 10:51:09;;;;;;;25.10;17.67;;;;;;;17.70;68.25;101200.72;4991266;28;20203;-78
2021/09/23 10:53:36;;;;;;;24.37;17.40;;;;;;;17.49;68.91;101217.19;5016617;28;20202;-77
2021/09/23 10:56:08;;;;;;;21.77;16.00;;;;;;;17.55;69.08;101191.28;5015547;28;20179;-77
2021/09/23 10:58:39;;;;;;;20.17;15.67;;;;;;;17.67;68.65;101180.88;4985612;28;20188;-78
2021/09/23 11:01:06;;;;;;;21.07;15.10;;;;;;;17.95;67.48;101181.59;5009736;28;20201;-77
2021/09/23 11:03:39;;;;;;;20.03;14.77;;;;;;;17.75;68.27;101194.69;5009273;28;20647;-77
2021/09/23 11:06:09;;;;;;;19.50;13.80;;;;;;;17.60;68.39;101207.66;4976429;28;20200;-78
2021/09/23 11:08:41;;;;;;;18.43;13.67;;;;;;;17.39;68.68;101197.38;5014424;28;20234;-78
2021/09/23 11:11:09;;;;;;;17.87;12.97;;;;;;;17.38;69.11;101198.22;4999653;28;20231;-78
2021/09/23 11:13:38;;;;;;;19.50;13.53;;;;;;;17.47;68.52;101193.06;5015519;28;20199;-77